sensor_id;sensor_type;location;lat;lon;timestamp;P1;durP1;ratioP1;P2;durP2;ratioP2
39654;SDS011;25336;59.944;11.010;2022-07-23T00:01:08;1.75;;;1.65;;
39654;SDS011;25336;59.944;11.010;2022-07-23T00:03:33;1.65;;;1.55;;
39654;SDS011;25336;59.944;11.010;2022-07-23T00:05:59;2.05;;;1.65;;
39654;SDS011;25336;59.944;11.010;2022-07-23T00:08:25;2.45;;;1.60;;
39654;SDS011;25336;59.944;11.010;2022-07-23T00:10:51;1.67;;;1.50;;
39654;SDS011;25336;59.944;11.010;2022-07-23T00:13:16;1.65;;;1.55;;
39654;SDS011;25336;59.944;11.010;2022-07-23T00:15:42;1.80;;;1.63;;
39654;SDS011;25336;59.944;11.010;2022-07-23T00:18:07;1.45;;;1.35;;
39654;SDS011;25336;59.944;11.010;2022-07-23T00:20:33;1.65;;;1.55;;
39654;SDS011;25336;59.944;11.010;2022-07-23T00:22:59;1.50;;;1.42;;
39654;SDS011;25336;59.944;11.010;2022-07-23T00:25:24;2.22;;;2.00;;
39654;SDS011;25336;59.944;11.010;2022-07-23T00:27:51;1.70;;;1.60;;
39654;SDS011;25336;59.944;11.010;2022-07-23T00:30:17;2.03;;;1.83;;
39654;SDS011;25336;59.944;11.010;2022-07-23T00:32:47;1.98;;;1.88;;
39654;SDS011;25336;59.944;11.010;2022-07-23T00:35:13;1.83;;;1.73;;
39654;SDS011;25336;59.944;11.010;2022-07-23T00:37:39;1.65;;;1.55;;
39654;SDS011;25336;59.944;11.010;2022-07-23T00:40:05;3.58;;;1.77;;
39654;SDS011;25336;59.944;11.010;2022-07-23T00:42:32;1.60;;;1.50;;
39654;SDS011;25336;59.944;11.010;2022-07-23T00:44:57;2.13;;;1.95;;
39654;SDS011;25336;59.944;11.010;2022-07-23T00:47:23;3.33;;;2.17;;
39654;SDS011;25336;59.944;11.010;2022-07-23T00:49:49;2.20;;;1.90;;
39654;SDS011;25336;59.944;11.010;2022-07-23T00:52:14;2.20;;;2.00;;
39654;SDS011;25336;59.944;11.010;2022-07-23T00:54:40;3.28;;;1.98;;
39654;SDS011;25336;59.944;11.010;2022-07-23T00:57:06;1.88;;;1.30;;
39654;SDS011;25336;59.944;11.010;2022-07-23T00:59:32;1.35;;;1.30;;
39654;SDS011;25336;59.944;11.010;2022-07-23T01:01:58;2.13;;;1.92;;
39654;SDS011;25336;59.944;11.010;2022-07-23T01:04:23;1.98;;;1.60;;
39654;SDS011;25336;59.944;11.010;2022-07-23T01:06:49;1.60;;;1.50;;
39654;SDS011;25336;59.944;11.010;2022-07-23T01:09:14;1.70;;;1.60;;
39654;SDS011;25336;59.944;11.010;2022-07-23T01:11:40;1.50;;;1.40;;
39654;SDS011;25336;59.944;11.010;2022-07-23T01:14:17;1.90;;;1.40;;
39654;SDS011;25336;59.944;11.010;2022-07-23T01:16:44;1.55;;;1.45;;
39654;SDS011;25336;59.944;11.010;2022-07-23T01:19:11;1.70;;;1.55;;
39654;SDS011;25336;59.944;11.010;2022-07-23T01:21:41;1.38;;;1.27;;
39654;SDS011;25336;59.944;11.010;2022-07-23T01:24:12;1.55;;;1.45;;
39654;SDS011;25336;59.944;11.010;2022-07-23T01:26:39;1.67;;;1.58;;
39654;SDS011;25336;59.944;11.010;2022-07-23T01:29:09;4.28;;;1.80;;
39654;SDS011;25336;59.944;11.010;2022-07-23T01:31:35;1.33;;;1.23;;
39654;SDS011;25336;59.944;11.010;2022-07-23T01:34:01;1.33;;;1.23;;
39654;SDS011;25336;59.944;11.010;2022-07-23T01:36:26;1.70;;;1.60;;
39654;SDS011;25336;59.944;11.010;2022-07-23T01:38:52;1.23;;;1.17;;
39654;SDS011;25336;59.944;11.010;2022-07-23T01:41:18;1.58;;;1.48;;
39654;SDS011;25336;59.944;11.010;2022-07-23T01:43:44;1.55;;;1.25;;
39654;SDS011;25336;59.944;11.010;2022-07-23T01:46:09;2.40;;;1.45;;
39654;SDS011;25336;59.944;11.010;2022-07-23T01:48:35;1.38;;;1.23;;
39654;SDS011;25336;59.944;11.010;2022-07-23T01:51:00;1.40;;;1.30;;
39654;SDS011;25336;59.944;11.010;2022-07-23T01:53:26;1.65;;;1.55;;
39654;SDS011;25336;59.944;11.010;2022-07-23T01:55:52;1.83;;;1.73;;
39654;SDS011;25336;59.944;11.010;2022-07-23T01:58:17;1.67;;;1.58;;
39654;SDS011;25336;59.944;11.010;2022-07-23T02:00:43;1.73;;;1.60;;
39654;SDS011;25336;59.944;11.010;2022-07-23T02:03:08;1.67;;;1.58;;
39654;SDS011;25336;59.944;11.010;2022-07-23T02:05:34;1.20;;;1.13;;
39654;SDS011;25336;59.944;11.010;2022-07-23T02:08:00;1.48;;;1.38;;
39654;SDS011;25336;59.944;11.010;2022-07-23T02:10:26;1.80;;;1.52;;
39654;SDS011;25336;59.944;11.010;2022-07-23T02:12:52;1.60;;;1.50;;
39654;SDS011;25336;59.944;11.010;2022-07-23T02:15:18;3.67;;;2.30;;
39654;SDS011;25336;59.944;11.010;2022-07-23T02:17:43;2.25;;;2.15;;
39654;SDS011;25336;59.944;11.010;2022-07-23T02:20:09;2.70;;;2.50;;
39654;SDS011;25336;59.944;11.010;2022-07-23T02:22:35;2.60;;;2.38;;
39654;SDS011;25336;59.944;11.010;2022-07-23T02:25:02;5.07;;;2.30;;
39654;SDS011;25336;59.944;11.010;2022-07-23T02:27:29;5.63;;;2.58;;
39654;SDS011;25336;59.944;11.010;2022-07-23T02:29:54;3.00;;;2.20;;
39654;SDS011;25336;59.944;11.010;2022-07-23T02:32:20;2.15;;;2.03;;
39654;SDS011;25336;59.944;11.010;2022-07-23T02:34:48;2.70;;;2.15;;
39654;SDS011;25336;59.944;11.010;2022-07-23T02:37:14;2.33;;;2.08;;
39654;SDS011;25336;59.944;11.010;2022-07-23T02:39:40;3.63;;;2.38;;
39654;SDS011;25336;59.944;11.010;2022-07-23T02:42:06;2.30;;;2.10;;
39654;SDS011;25336;59.944;11.010;2022-07-23T02:44:32;2.67;;;1.90;;
39654;SDS011;25336;59.944;11.010;2022-07-23T02:46:57;1.63;;;1.52;;
39654;SDS011;25336;59.944;11.010;2022-07-23T02:49:23;2.47;;;2.05;;
39654;SDS011;25336;59.944;11.010;2022-07-23T02:51:49;1.88;;;1.77;;
39654;SDS011;25336;59.944;11.010;2022-07-23T02:54:15;2.35;;;2.25;;
39654;SDS011;25336;59.944;11.010;2022-07-23T02:56:40;2.13;;;2.00;;
39654;SDS011;25336;59.944;11.010;2022-07-23T02:59:06;1.75;;;1.65;;
39654;SDS011;25336;59.944;11.010;2022-07-23T03:01:32;1.80;;;1.70;;
39654;SDS011;25336;59.944;11.010;2022-07-23T03:03:57;1.80;;;1.70;;
39654;SDS011;25336;59.944;11.010;2022-07-23T03:06:23;4.90;;;2.88;;
39654;SDS011;25336;59.944;11.010;2022-07-23T03:08:49;2.78;;;1.60;;
39654;SDS011;25336;59.944;11.010;2022-07-23T03:11:14;1.98;;;1.50;;
39654;SDS011;25336;59.944;11.010;2022-07-23T03:13:40;1.67;;;1.55;;
39654;SDS011;25336;59.944;11.010;2022-07-23T03:16:06;1.88;;;1.77;;
39654;SDS011;25336;59.944;11.010;2022-07-23T03:18:32;1.65;;;1.55;;
39654;SDS011;25336;59.944;11.010;2022-07-23T03:20:58;2.85;;;1.90;;
39654;SDS011;25336;59.944;11.010;2022-07-23T03:23:24;3.88;;;1.60;;
39654;SDS011;25336;59.944;11.010;2022-07-23T03:25:50;1.80;;;1.55;;
39654;SDS011;25336;59.944;11.010;2022-07-23T03:28:16;4.57;;;1.60;;
39654;SDS011;25336;59.944;11.010;2022-07-23T03:30:45;1.45;;;1.35;;
39654;SDS011;25336;59.944;11.010;2022-07-23T03:33:20;2.42;;;1.70;;
39654;SDS011;25336;59.944;11.010;2022-07-23T03:35:46;2.72;;;1.90;;
39654;SDS011;25336;59.944;11.010;2022-07-23T03:38:12;2.50;;;1.65;;
39654;SDS011;25336;59.944;11.010;2022-07-23T03:40:39;1.67;;;1.52;;
39654;SDS011;25336;59.944;11.010;2022-07-23T03:43:04;1.67;;;1.58;;
39654;SDS011;25336;59.944;11.010;2022-07-23T03:45:30;2.00;;;1.90;;
39654;SDS011;25336;59.944;11.010;2022-07-23T03:47:56;1.90;;;1.80;;
39654;SDS011;25336;59.944;11.010;2022-07-23T03:50:22;6.32;;;1.90;;
39654;SDS011;25336;59.944;11.010;2022-07-23T03:52:48;2.40;;;2.20;;
39654;SDS011;25336;59.944;11.010;2022-07-23T03:55:13;2.20;;;2.03;;
39654;SDS011;25336;59.944;11.010;2022-07-23T03:57:40;1.90;;;1.80;;
39654;SDS011;25336;59.944;11.010;2022-07-23T04:00:05;1.90;;;1.80;;
39654;SDS011;25336;59.944;11.010;2022-07-23T04:02:33;4.63;;;1.70;;
39654;SDS011;25336;59.944;11.010;2022-07-23T04:04:59;2.88;;;1.75;;
39654;SDS011;25336;59.944;11.010;2022-07-23T04:07:25;1.85;;;1.75;;
39654;SDS011;25336;59.944;11.010;2022-07-23T04:09:51;1.90;;;1.80;;
39654;SDS011;25336;59.944;11.010;2022-07-23T04:12:17;2.03;;;1.83;;
39654;SDS011;25336;59.944;11.010;2022-07-23T04:14:43;1.83;;;1.73;;
39654;SDS011;25336;59.944;11.010;2022-07-23T04:17:09;1.75;;;1.65;;
39654;SDS011;25336;59.944;11.010;2022-07-23T04:19:37;1.60;;;1.50;;
39654;SDS011;25336;59.944;11.010;2022-07-23T04:22:06;2.10;;;1.45;;
39654;SDS011;25336;59.944;11.010;2022-07-23T04:24:33;1.55;;;1.45;;
39654;SDS011;25336;59.944;11.010;2022-07-23T04:26:58;1.90;;;1.80;;
39654;SDS011;25336;59.944;11.010;2022-07-23T04:29:24;2.15;;;2.05;;
39654;SDS011;25336;59.944;11.010;2022-07-23T04:31:50;2.05;;;1.90;;
39654;SDS011;25336;59.944;11.010;2022-07-23T04:34:15;3.35;;;1.80;;
39654;SDS011;25336;59.944;11.010;2022-07-23T04:36:41;2.08;;;1.80;;
39654;SDS011;25336;59.944;11.010;2022-07-23T04:39:07;3.28;;;2.28;;
39654;SDS011;25336;59.944;11.010;2022-07-23T04:41:33;1.90;;;1.70;;
39654;SDS011;25336;59.944;11.010;2022-07-23T04:43:59;2.70;;;2.20;;
39654;SDS011;25336;59.944;11.010;2022-07-23T04:46:25;4.22;;;2.45;;
39654;SDS011;25336;59.944;11.010;2022-07-23T04:48:51;2.22;;;2.13;;
39654;SDS011;25336;59.944;11.010;2022-07-23T04:51:16;1.90;;;1.80;;
39654;SDS011;25336;59.944;11.010;2022-07-23T04:53:42;2.55;;;2.35;;
39654;SDS011;25336;59.944;11.010;2022-07-23T04:56:07;1.90;;;1.80;;
39654;SDS011;25336;59.944;11.010;2022-07-23T04:58:33;2.30;;;2.20;;
39654;SDS011;25336;59.944;11.010;2022-07-23T05:00:59;2.20;;;2.10;;
39654;SDS011;25336;59.944;11.010;2022-07-23T05:03:25;1.90;;;1.80;;
39654;SDS011;25336;59.944;11.010;2022-07-23T05:05:50;2.20;;;2.10;;
39654;SDS011;25336;59.944;11.010;2022-07-23T05:08:16;2.22;;;2.13;;
39654;SDS011;25336;59.944;11.010;2022-07-23T05:10:42;2.50;;;1.90;;
39654;SDS011;25336;59.944;11.010;2022-07-23T05:13:07;2.50;;;2.30;;
39654;SDS011;25336;59.944;11.010;2022-07-23T05:15:33;2.83;;;2.63;;
39654;SDS011;25336;59.944;11.010;2022-07-23T05:17:59;2.30;;;2.10;;
39654;SDS011;25336;59.944;11.010;2022-07-23T05:20:24;4.90;;;2.67;;
39654;SDS011;25336;59.944;11.010;2022-07-23T05:22:50;2.45;;;2.25;;
39654;SDS011;25336;59.944;11.010;2022-07-23T05:25:16;3.10;;;1.95;;
39654;SDS011;25336;59.944;11.010;2022-07-23T05:27:42;4.32;;;2.30;;
39654;SDS011;25336;59.944;11.010;2022-07-23T05:30:08;1.83;;;1.73;;
39654;SDS011;25336;59.944;11.010;2022-07-23T05:32:34;4.05;;;2.17;;
39654;SDS011;25336;59.944;11.010;2022-07-23T05:35:01;2.20;;;2.00;;
39654;SDS011;25336;59.944;11.010;2022-07-23T05:37:28;2.08;;;1.98;;
39654;SDS011;25336;59.944;11.010;2022-07-23T05:39:53;3.00;;;2.22;;
39654;SDS011;25336;59.944;11.010;2022-07-23T05:42:19;2.22;;;1.85;;
39654;SDS011;25336;59.944;11.010;2022-07-23T05:44:44;2.10;;;2.00;;
39654;SDS011;25336;59.944;11.010;2022-07-23T05:47:10;1.98;;;1.88;;
39654;SDS011;25336;59.944;11.010;2022-07-23T05:49:36;2.03;;;1.90;;
39654;SDS011;25336;59.944;11.010;2022-07-23T05:52:06;2.28;;;2.10;;
39654;SDS011;25336;59.944;11.010;2022-07-23T05:54:34;3.35;;;2.03;;
39654;SDS011;25336;59.944;11.010;2022-07-23T05:57:00;2.53;;;2.33;;
39654;SDS011;25336;59.944;11.010;2022-07-23T05:59:26;1.92;;;1.83;;
39654;SDS011;25336;59.944;11.010;2022-07-23T06:01:52;2.08;;;1.98;;
39654;SDS011;25336;59.944;11.010;2022-07-23T06:04:18;2.40;;;1.70;;
39654;SDS011;25336;59.944;11.010;2022-07-23T06:06:44;1.88;;;1.73;;
39654;SDS011;25336;59.944;11.010;2022-07-23T06:09:09;2.75;;;1.95;;
39654;SDS011;25336;59.944;11.010;2022-07-23T06:11:38;3.30;;;2.30;;
39654;SDS011;25336;59.944;11.010;2022-07-23T06:14:04;2.25;;;1.75;;
39654;SDS011;25336;59.944;11.010;2022-07-23T06:16:30;1.70;;;1.60;;
39654;SDS011;25336;59.944;11.010;2022-07-23T06:18:56;2.05;;;1.83;;
39654;SDS011;25336;59.944;11.010;2022-07-23T06:21:21;2.42;;;2.22;;
39654;SDS011;25336;59.944;11.010;2022-07-23T06:23:47;2.17;;;1.98;;
39654;SDS011;25336;59.944;11.010;2022-07-23T06:26:13;1.70;;;1.60;;
39654;SDS011;25336;59.944;11.010;2022-07-23T06:28:41;2.20;;;1.60;;
39654;SDS011;25336;59.944;11.010;2022-07-23T06:31:07;1.90;;;1.80;;
39654;SDS011;25336;59.944;11.010;2022-07-23T06:33:33;1.80;;;1.70;;
39654;SDS011;25336;59.944;11.010;2022-07-23T06:35:59;1.55;;;1.45;;
39654;SDS011;25336;59.944;11.010;2022-07-23T06:38:27;1.88;;;1.75;;
39654;SDS011;25336;59.944;11.010;2022-07-23T06:40:55;1.40;;;1.30;;
39654;SDS011;25336;59.944;11.010;2022-07-23T06:43:20;1.23;;;1.13;;
39654;SDS011;25336;59.944;11.010;2022-07-23T06:45:46;1.20;;;1.10;;
39654;SDS011;25336;59.944;11.010;2022-07-23T06:48:12;1.20;;;1.10;;
39654;SDS011;25336;59.944;11.010;2022-07-23T06:50:37;1.30;;;1.20;;
39654;SDS011;25336;59.944;11.010;2022-07-23T06:53:03;1.13;;;1.02;;
39654;SDS011;25336;59.944;11.010;2022-07-23T06:55:32;1.00;;;1.00;;
39654;SDS011;25336;59.944;11.010;2022-07-23T06:57:58;1.20;;;1.10;;
39654;SDS011;25336;59.944;11.010;2022-07-23T07:00:23;1.10;;;1.00;;
39654;SDS011;25336;59.944;11.010;2022-07-23T07:02:53;0.95;;;0.95;;
39654;SDS011;25336;59.944;11.010;2022-07-23T07:05:19;3.25;;;1.00;;
39654;SDS011;25336;59.944;11.010;2022-07-23T07:07:44;1.08;;;0.98;;
39654;SDS011;25336;59.944;11.010;2022-07-23T07:10:10;1.63;;;0.80;;
39654;SDS011;25336;59.944;11.010;2022-07-23T07:12:36;0.60;;;0.60;;
39654;SDS011;25336;59.944;11.010;2022-07-23T07:15:01;1.10;;;0.70;;
39654;SDS011;25336;59.944;11.010;2022-07-23T07:17:27;0.50;;;0.50;;
39654;SDS011;25336;59.944;11.010;2022-07-23T07:19:53;1.58;;;0.70;;
39654;SDS011;25336;59.944;11.010;2022-07-23T07:22:18;0.70;;;0.70;;
39654;SDS011;25336;59.944;11.010;2022-07-23T07:24:46;0.90;;;0.90;;
39654;SDS011;25336;59.944;11.010;2022-07-23T07:27:12;0.63;;;0.63;;
39654;SDS011;25336;59.944;11.010;2022-07-23T07:29:40;0.80;;;0.80;;
39654;SDS011;25336;59.944;11.010;2022-07-23T07:32:06;0.80;;;0.80;;
39654;SDS011;25336;59.944;11.010;2022-07-23T07:34:31;0.68;;;0.68;;
39654;SDS011;25336;59.944;11.010;2022-07-23T07:36:57;2.15;;;0.73;;
39654;SDS011;25336;59.944;11.010;2022-07-23T07:39:25;0.70;;;0.70;;
39654;SDS011;25336;59.944;11.010;2022-07-23T07:41:51;1.38;;;0.80;;
39654;SDS011;25336;59.944;11.010;2022-07-23T07:44:17;0.52;;;0.52;;
39654;SDS011;25336;59.944;11.010;2022-07-23T07:46:42;0.63;;;0.60;;
39654;SDS011;25336;59.944;11.010;2022-07-23T07:49:08;1.92;;;0.80;;
39654;SDS011;25336;59.944;11.010;2022-07-23T07:51:34;0.70;;;0.70;;
39654;SDS011;25336;59.944;11.010;2022-07-23T07:54:00;0.63;;;0.63;;
39654;SDS011;25336;59.944;11.010;2022-07-23T07:56:26;0.68;;;0.43;;
39654;SDS011;25336;59.944;11.010;2022-07-23T07:58:52;0.90;;;0.90;;
39654;SDS011;25336;59.944;11.010;2022-07-23T08:01:18;2.33;;;0.80;;
39654;SDS011;25336;59.944;11.010;2022-07-23T08:03:44;0.70;;;0.68;;
39654;SDS011;25336;59.944;11.010;2022-07-23T08:06:11;1.25;;;0.63;;
39654;SDS011;25336;59.944;11.010;2022-07-23T08:08:36;0.93;;;0.80;;
39654;SDS011;25336;59.944;11.010;2022-07-23T08:11:02;0.77;;;0.70;;
39654;SDS011;25336;59.944;11.010;2022-07-23T08:13:28;0.57;;;0.57;;
39654;SDS011;25336;59.944;11.010;2022-07-23T08:15:53;0.70;;;0.70;;
39654;SDS011;25336;59.944;11.010;2022-07-23T08:18:19;0.70;;;0.70;;
39654;SDS011;25336;59.944;11.010;2022-07-23T08:20:44;1.17;;;0.45;;
39654;SDS011;25336;59.944;11.010;2022-07-23T08:23:10;0.60;;;0.60;;
39654;SDS011;25336;59.944;11.010;2022-07-23T08:25:41;0.60;;;0.60;;
39654;SDS011;25336;59.944;11.010;2022-07-23T08:28:08;0.60;;;0.60;;
39654;SDS011;25336;59.944;11.010;2022-07-23T08:30:37;0.60;;;0.50;;
39654;SDS011;25336;59.944;11.010;2022-07-23T08:33:08;0.60;;;0.60;;
39654;SDS011;25336;59.944;11.010;2022-07-23T08:35:46;0.60;;;0.60;;
39654;SDS011;25336;59.944;11.010;2022-07-23T08:38:14;0.40;;;0.40;;
39654;SDS011;25336;59.944;11.010;2022-07-23T08:40:45;1.13;;;0.63;;
39654;SDS011;25336;59.944;11.010;2022-07-23T08:43:16;0.45;;;0.45;;
39654;SDS011;25336;59.944;11.010;2022-07-23T08:45:46;0.65;;;0.65;;
39654;SDS011;25336;59.944;11.010;2022-07-23T08:48:14;1.27;;;0.70;;
39654;SDS011;25336;59.944;11.010;2022-07-23T08:50:47;0.55;;;0.55;;
39654;SDS011;25336;59.944;11.010;2022-07-23T08:53:15;0.55;;;0.55;;
39654;SDS011;25336;59.944;11.010;2022-07-23T08:55:48;0.63;;;0.57;;
39654;SDS011;25336;59.944;11.010;2022-07-23T08:58:18;0.60;;;0.60;;
39654;SDS011;25336;59.944;11.010;2022-07-23T09:00:45;1.75;;;0.60;;
39654;SDS011;25336;59.944;11.010;2022-07-23T09:03:15;0.63;;;0.50;;
39654;SDS011;25336;59.944;11.010;2022-07-23T09:05:42;0.82;;;0.73;;
39654;SDS011;25336;59.944;11.010;2022-07-23T09:10:42;0.60;;;0.60;;
39654;SDS011;25336;59.944;11.010;2022-07-23T09:16:02;0.50;;;0.50;;
39654;SDS011;25336;59.944;11.010;2022-07-23T09:18:34;0.60;;;0.60;;
39654;SDS011;25336;59.944;11.010;2022-07-23T09:21:17;0.50;;;0.50;;
39654;SDS011;25336;59.944;11.010;2022-07-23T09:26:26;0.60;;;0.60;;
39654;SDS011;25336;59.944;11.010;2022-07-23T09:31:43;0.77;;;0.47;;
39654;SDS011;25336;59.944;11.010;2022-07-23T09:34:11;0.47;;;0.47;;
39654;SDS011;25336;59.944;11.010;2022-07-23T09:36:39;0.65;;;0.40;;
39654;SDS011;25336;59.944;11.010;2022-07-23T09:39:06;0.50;;;0.50;;
39654;SDS011;25336;59.944;11.010;2022-07-23T09:41:36;0.50;;;0.50;;
39654;SDS011;25336;59.944;11.010;2022-07-23T09:44:14;0.57;;;0.57;;
39654;SDS011;25336;59.944;11.010;2022-07-23T09:46:43;0.50;;;0.50;;
39654;SDS011;25336;59.944;11.010;2022-07-23T09:49:20;0.43;;;0.43;;
39654;SDS011;25336;59.944;11.010;2022-07-23T09:51:54;0.40;;;0.40;;
39654;SDS011;25336;59.944;11.010;2022-07-23T09:54:26;0.52;;;0.52;;
39654;SDS011;25336;59.944;11.010;2022-07-23T09:56:56;0.85;;;0.70;;
39654;SDS011;25336;59.944;11.010;2022-07-23T09:59:25;0.73;;;0.55;;
39654;SDS011;25336;59.944;11.010;2022-07-23T10:01:53;0.50;;;0.50;;
39654;SDS011;25336;59.944;11.010;2022-07-23T10:04:22;0.50;;;0.50;;
39654;SDS011;25336;59.944;11.010;2022-07-23T10:06:50;0.40;;;0.40;;
39654;SDS011;25336;59.944;11.010;2022-07-23T10:09:17;0.80;;;0.75;;
39654;SDS011;25336;59.944;11.010;2022-07-23T10:11:55;0.70;;;0.70;;
39654;SDS011;25336;59.944;11.010;2022-07-23T10:14:38;0.65;;;0.63;;
39654;SDS011;25336;59.944;11.010;2022-07-23T10:17:05;0.60;;;0.60;;
39654;SDS011;25336;59.944;11.010;2022-07-23T10:19:31;0.60;;;0.60;;
39654;SDS011;25336;59.944;11.010;2022-07-23T10:22:19;0.50;;;0.50;;
39654;SDS011;25336;59.944;11.010;2022-07-23T10:30:06;0.60;;;0.50;;
39654;SDS011;25336;59.944;11.010;2022-07-23T10:33:05;0.60;;;0.60;;
39654;SDS011;25336;59.944;11.010;2022-07-23T10:35:48;0.50;;;0.50;;
39654;SDS011;25336;59.944;11.010;2022-07-23T10:38:37;0.50;;;0.50;;
39654;SDS011;25336;59.944;11.010;2022-07-23T10:41:37;0.43;;;0.40;;
39654;SDS011;25336;59.944;11.010;2022-07-23T10:44:14;0.60;;;0.60;;
39654;SDS011;25336;59.944;11.010;2022-07-23T10:47:21;0.90;;;0.57;;
39654;SDS011;25336;59.944;11.010;2022-07-23T10:50:24;1.63;;;0.60;;
39654;SDS011;25336;59.944;11.010;2022-07-23T10:57:59;0.57;;;0.50;;
39654;SDS011;25336;59.944;11.010;2022-07-23T11:00:37;0.55;;;0.55;;
39654;SDS011;25336;59.944;11.010;2022-07-23T11:03:05;0.82;;;0.80;;
39654;SDS011;25336;59.944;11.010;2022-07-23T11:05:54;0.90;;;0.75;;
39654;SDS011;25336;59.944;11.010;2022-07-23T11:08:20;0.57;;;0.57;;
39654;SDS011;25336;59.944;11.010;2022-07-23T11:34:53;0.77;;;0.60;;
39654;SDS011;25336;59.944;11.010;2022-07-23T11:37:38;0.50;;;0.50;;
39654;SDS011;25336;59.944;11.010;2022-07-23T11:40:07;0.57;;;0.57;;
39654;SDS011;25336;59.944;11.010;2022-07-23T11:42:38;0.50;;;0.50;;
39654;SDS011;25336;59.944;11.010;2022-07-23T11:45:05;0.73;;;0.70;;
39654;SDS011;25336;59.944;11.010;2022-07-23T11:47:33;0.47;;;0.47;;
39654;SDS011;25336;59.944;11.010;2022-07-23T11:49:59;0.73;;;0.50;;
39654;SDS011;25336;59.944;11.010;2022-07-23T11:52:28;0.50;;;0.50;;
39654;SDS011;25336;59.944;11.010;2022-07-23T11:55:05;0.43;;;0.43;;
39654;SDS011;25336;59.944;11.010;2022-07-23T11:57:33;0.60;;;0.60;;
39654;SDS011;25336;59.944;11.010;2022-07-23T12:00:05;1.23;;;0.70;;
39654;SDS011;25336;59.944;11.010;2022-07-23T12:02:40;0.88;;;0.75;;
39654;SDS011;25336;59.944;11.010;2022-07-23T12:05:07;0.60;;;0.57;;
39654;SDS011;25336;59.944;11.010;2022-07-23T12:07:37;0.60;;;0.60;;
39654;SDS011;25336;59.944;11.010;2022-07-23T12:10:15;0.95;;;0.50;;
39654;SDS011;25336;59.944;11.010;2022-07-23T12:12:48;0.52;;;0.52;;
39654;SDS011;25336;59.944;11.010;2022-07-23T12:15:17;0.82;;;0.77;;
39654;SDS011;25336;59.944;11.010;2022-07-23T12:17:46;0.60;;;0.60;;
39654;SDS011;25336;59.944;11.010;2022-07-23T12:20:14;1.38;;;0.85;;
39654;SDS011;25336;59.944;11.010;2022-07-23T12:22:43;0.45;;;0.45;;
39654;SDS011;25336;59.944;11.010;2022-07-23T12:25:11;0.47;;;0.47;;
39654;SDS011;25336;59.944;11.010;2022-07-23T12:27:37;0.57;;;0.57;;
39654;SDS011;25336;59.944;11.010;2022-07-23T12:30:26;0.60;;;0.60;;
39654;SDS011;25336;59.944;11.010;2022-07-23T12:32:55;1.25;;;0.65;;
39654;SDS011;25336;59.944;11.010;2022-07-23T12:35:22;0.80;;;0.60;;
39654;SDS011;25336;59.944;11.010;2022-07-23T12:37:58;0.70;;;0.70;;
39654;SDS011;25336;59.944;11.010;2022-07-23T12:40:27;3.03;;;0.82;;
39654;SDS011;25336;59.944;11.010;2022-07-23T12:42:54;0.50;;;0.50;;
39654;SDS011;25336;59.944;11.010;2022-07-23T12:45:22;1.48;;;0.63;;
39654;SDS011;25336;59.944;11.010;2022-07-23T12:50:39;0.68;;;0.50;;
39654;SDS011;25336;59.944;11.010;2022-07-23T12:53:15;1.00;;;0.50;;
39654;SDS011;25336;59.944;11.010;2022-07-23T12:55:42;0.55;;;0.55;;
39654;SDS011;25336;59.944;11.010;2022-07-23T13:00:50;0.68;;;0.68;;
39654;SDS011;25336;59.944;11.010;2022-07-23T13:04:18;0.60;;;0.60;;
39654;SDS011;25336;59.944;11.010;2022-07-23T13:06:27;0.40;;;0.40;;
39654;SDS011;25336;59.944;11.010;2022-07-23T13:08:54;0.52;;;0.52;;
39654;SDS011;25336;59.944;11.010;2022-07-23T13:11:19;2.22;;;0.98;;
39654;SDS011;25336;59.944;11.010;2022-07-23T13:13:45;1.45;;;0.95;;
39654;SDS011;25336;59.944;11.010;2022-07-23T13:16:11;0.70;;;0.70;;
39654;SDS011;25336;59.944;11.010;2022-07-23T13:18:36;0.50;;;0.50;;
39654;SDS011;25336;59.944;11.010;2022-07-23T13:21:04;0.50;;;0.50;;
39654;SDS011;25336;59.944;11.010;2022-07-23T13:23:29;0.73;;;0.60;;
39654;SDS011;25336;59.944;11.010;2022-07-23T13:25:55;0.50;;;0.50;;
39654;SDS011;25336;59.944;11.010;2022-07-23T13:28:21;0.70;;;0.70;;
39654;SDS011;25336;59.944;11.010;2022-07-23T13:30:48;0.82;;;0.65;;
39654;SDS011;25336;59.944;11.010;2022-07-23T13:33:16;1.05;;;0.50;;
39654;SDS011;25336;59.944;11.010;2022-07-23T13:35:42;0.50;;;0.50;;
39654;SDS011;25336;59.944;11.010;2022-07-23T13:38:08;3.78;;;0.57;;
39654;SDS011;25336;59.944;11.010;2022-07-23T13:40:35;0.50;;;0.50;;
39654;SDS011;25336;59.944;11.010;2022-07-23T13:43:04;0.60;;;0.60;;
39654;SDS011;25336;59.944;11.010;2022-07-23T13:45:31;0.55;;;0.55;;
39654;SDS011;25336;59.944;11.010;2022-07-23T13:47:58;0.75;;;0.50;;
39654;SDS011;25336;59.944;11.010;2022-07-23T13:50:23;0.75;;;0.63;;
39654;SDS011;25336;59.944;11.010;2022-07-23T13:52:49;0.77;;;0.60;;
39654;SDS011;25336;59.944;11.010;2022-07-23T13:55:15;0.60;;;0.60;;
39654;SDS011;25336;59.944;11.010;2022-07-23T13:57:40;1.23;;;0.55;;
39654;SDS011;25336;59.944;11.010;2022-07-23T14:00:06;0.50;;;0.50;;
39654;SDS011;25336;59.944;11.010;2022-07-23T14:02:35;0.47;;;0.47;;
39654;SDS011;25336;59.944;11.010;2022-07-23T14:05:03;0.50;;;0.50;;
39654;SDS011;25336;59.944;11.010;2022-07-23T14:07:33;0.50;;;0.50;;
39654;SDS011;25336;59.944;11.010;2022-07-23T14:09:59;0.57;;;0.50;;
39654;SDS011;25336;59.944;11.010;2022-07-23T14:12:25;0.65;;;0.60;;
39654;SDS011;25336;59.944;11.010;2022-07-23T14:14:51;0.43;;;0.43;;
39654;SDS011;25336;59.944;11.010;2022-07-23T14:17:17;0.40;;;0.40;;
39654;SDS011;25336;59.944;11.010;2022-07-23T14:19:43;0.60;;;0.60;;
39654;SDS011;25336;59.944;11.010;2022-07-23T14:22:09;1.73;;;0.60;;
39654;SDS011;25336;59.944;11.010;2022-07-23T14:24:35;0.40;;;0.40;;
39654;SDS011;25336;59.944;11.010;2022-07-23T14:27:01;0.40;;;0.40;;
39654;SDS011;25336;59.944;11.010;2022-07-23T14:29:28;0.57;;;0.57;;
39654;SDS011;25336;59.944;11.010;2022-07-23T14:31:54;0.63;;;0.50;;
39654;SDS011;25336;59.944;11.010;2022-07-23T14:34:20;0.40;;;0.40;;
39654;SDS011;25336;59.944;11.010;2022-07-23T14:36:46;0.60;;;0.60;;
39654;SDS011;25336;59.944;11.010;2022-07-23T14:39:12;0.47;;;0.47;;
39654;SDS011;25336;59.944;11.010;2022-07-23T14:41:38;0.40;;;0.40;;
39654;SDS011;25336;59.944;11.010;2022-07-23T14:44:04;0.50;;;0.50;;
39654;SDS011;25336;59.944;11.010;2022-07-23T14:46:30;0.88;;;0.55;;
39654;SDS011;25336;59.944;11.010;2022-07-23T14:48:56;0.70;;;0.40;;
39654;SDS011;25336;59.944;11.010;2022-07-23T14:51:21;0.50;;;0.50;;
39654;SDS011;25336;59.944;11.010;2022-07-23T14:53:47;0.55;;;0.50;;
39654;SDS011;25336;59.944;11.010;2022-07-23T14:56:13;0.57;;;0.50;;
39654;SDS011;25336;59.944;11.010;2022-07-23T14:58:39;0.50;;;0.50;;
39654;SDS011;25336;59.944;11.010;2022-07-23T15:01:06;0.57;;;0.55;;
39654;SDS011;25336;59.944;11.010;2022-07-23T15:03:32;0.50;;;0.50;;
39654;SDS011;25336;59.944;11.010;2022-07-23T15:05:58;1.13;;;0.57;;
39654;SDS011;25336;59.944;11.010;2022-07-23T15:08:24;0.60;;;0.60;;
39654;SDS011;25336;59.944;11.010;2022-07-23T15:10:49;0.82;;;0.40;;
39654;SDS011;25336;59.944;11.010;2022-07-23T15:13:15;0.68;;;0.60;;
39654;SDS011;25336;59.944;11.010;2022-07-23T15:15:41;0.60;;;0.60;;
39654;SDS011;25336;59.944;11.010;2022-07-23T15:18:07;0.70;;;0.50;;
39654;SDS011;25336;59.944;11.010;2022-07-23T15:20:33;0.50;;;0.50;;
39654;SDS011;25336;59.944;11.010;2022-07-23T15:22:59;0.45;;;0.45;;
39654;SDS011;25336;59.944;11.010;2022-07-23T15:25:24;0.50;;;0.50;;
39654;SDS011;25336;59.944;11.010;2022-07-23T15:27:50;0.57;;;0.57;;